sensor_id;sensor_type;location;lat;lon;timestamp;temperature;humidity
25280;DHT22;13225;47.804;12.116;2023-01-16T00:00:31;0.40;99.90
25280;DHT22;13225;47.804;12.116;2023-01-16T00:02:56;0.30;99.90
25280;DHT22;13225;47.804;12.116;2023-01-16T00:05:22;0.30;99.90
25280;DHT22;13225;47.804;12.116;2023-01-16T00:07:48;0.20;99.90
25280;DHT22;13225;47.804;12.116;2023-01-16T00:10:13;0.20;99.90
25280;DHT22;13225;47.804;12.116;2023-01-16T00:12:39;0.20;99.90
25280;DHT22;13225;47.804;12.116;2023-01-16T00:15:05;0.10;99.90
25280;DHT22;13225;47.804;12.116;2023-01-16T00:17:30;0.10;99.90
25280;DHT22;13225;47.804;12.116;2023-01-16T00:19:56;0.20;99.90
25280;DHT22;13225;47.804;12.116;2023-01-16T00:22:22;0.20;99.90
25280;DHT22;13225;47.804;12.116;2023-01-16T00:24:47;0.10;99.90
25280;DHT22;13225;47.804;12.116;2023-01-16T00:27:13;0.10;99.90
25280;DHT22;13225;47.804;12.116;2023-01-16T00:29:39;0.10;99.90
25280;DHT22;13225;47.804;12.116;2023-01-16T00:32:04;0.10;99.90
25280;DHT22;13225;47.804;12.116;2023-01-16T00:34:30;0.10;99.90
25280;DHT22;13225;47.804;12.116;2023-01-16T00:36:55;0.10;99.90
25280;DHT22;13225;47.804;12.116;2023-01-16T00:39:21;0.10;99.90
25280;DHT22;13225;47.804;12.116;2023-01-16T00:41:47;0.10;99.90
25280;DHT22;13225;47.804;12.116;2023-01-16T00:44:12;0.00;99.90
25280;DHT22;13225;47.804;12.116;2023-01-16T00:46:38;0.00;99.90
25280;DHT22;13225;47.804;12.116;2023-01-16T00:49:04;0.00;99.90
25280;DHT22;13225;47.804;12.116;2023-01-16T00:51:29;-0.10;99.90
25280;DHT22;13225;47.804;12.116;2023-01-16T00:53:55;0.00;99.90
25280;DHT22;13225;47.804;12.116;2023-01-16T00:56:20;0.00;99.90
25280;DHT22;13225;47.804;12.116;2023-01-16T00:58:46;0.00;99.90
25280;DHT22;13225;47.804;12.116;2023-01-16T01:01:12;0.00;99.90
25280;DHT22;13225;47.804;12.116;2023-01-16T01:03:37;-0.10;99.90
25280;DHT22;13225;47.804;12.116;2023-01-16T01:06:10;-0.20;99.90
25280;DHT22;13225;47.804;12.116;2023-01-16T01:08:39;-0.30;99.90
25280;DHT22;13225;47.804;12.116;2023-01-16T01:11:13;-0.30;99.90
25280;DHT22;13225;47.804;12.116;2023-01-16T01:13:40;-0.30;99.90
25280;DHT22;13225;47.804;12.116;2023-01-16T01:16:06;-0.30;99.90
25280;DHT22;13225;47.804;12.116;2023-01-16T01:18:32;-0.30;99.90
25280;DHT22;13225;47.804;12.116;2023-01-16T01:20:58;-0.40;99.90
25280;DHT22;13225;47.804;12.116;2023-01-16T01:23:24;-0.40;99.90
25280;DHT22;13225;47.804;12.116;2023-01-16T01:25:49;-0.40;99.90
25280;DHT22;13225;47.804;12.116;2023-01-16T01:28:15;-0.40;99.90
25280;DHT22;13225;47.804;12.116;2023-01-16T01:30:41;-0.40;99.90
25280;DHT22;13225;47.804;12.116;2023-01-16T01:33:07;-0.50;99.90
25280;DHT22;13225;47.804;12.116;2023-01-16T01:35:34;-0.40;99.90
25280;DHT22;13225;47.804;12.116;2023-01-16T01:37:59;-0.50;99.90
25280;DHT22;13225;47.804;12.116;2023-01-16T01:40:25;-0.40;99.90
25280;DHT22;13225;47.804;12.116;2023-01-16T01:42:51;-0.40;99.90
25280;DHT22;13225;47.804;12.116;2023-01-16T01:45:28;-0.50;99.90
25280;DHT22;13225;47.804;12.116;2023-01-16T01:48:04;-0.50;99.90
25280;DHT22;13225;47.804;12.116;2023-01-16T01:53:26;-0.40;99.90
25280;DHT22;13225;47.804;12.116;2023-01-16T01:55:54;-0.50;99.90
25280;DHT22;13225;47.804;12.116;2023-01-16T01:58:22;-0.50;99.90
25280;DHT22;13225;47.804;12.116;2023-01-16T02:00:53;-0.40;99.90
25280;DHT22;13225;47.804;12.116;2023-01-16T02:03:27;-0.40;99.90
25280;DHT22;13225;47.804;12.116;2023-01-16T02:05:57;-0.50;99.90
25280;DHT22;13225;47.804;12.116;2023-01-16T02:08:28;-0.60;99.90
25280;DHT22;13225;47.804;12.116;2023-01-16T02:11:10;-0.70;99.90
25280;DHT22;13225;47.804;12.116;2023-01-16T02:13:55;-0.70;99.90
25280;DHT22;13225;47.804;12.116;2023-01-16T02:16:22;-0.70;99.90
25280;DHT22;13225;47.804;12.116;2023-01-16T02:19:09;-0.60;99.90
25280;DHT22;13225;47.804;12.116;2023-01-16T02:31:03;-0.40;99.90
25280;DHT22;13225;47.804;12.116;2023-01-16T02:36:52;-0.60;99.90
25280;DHT22;13225;47.804;12.116;2023-01-16T02:42:19;-0.60;99.90
25280;DHT22;13225;47.804;12.116;2023-01-16T02:47:35;-0.60;99.90
25280;DHT22;13225;47.804;12.116;2023-01-16T02:50:40;-0.60;99.90
25280;DHT22;13225;47.804;12.116;2023-01-16T02:58:14;-0.20;99.90
25280;DHT22;13225;47.804;12.116;2023-01-16T03:00:52;0.00;99.90
25280;DHT22;13225;47.804;12.116;2023-01-16T03:12:14;0.40;99.90
25280;DHT22;13225;47.804;12.116;2023-01-16T03:15:11;0.50;99.90
25280;DHT22;13225;47.804;12.116;2023-01-16T03:18:08;0.50;99.90
25280;DHT22;13225;47.804;12.116;2023-01-16T03:26:02;0.50;99.90
25280;DHT22;13225;47.804;12.116;2023-01-16T03:36:57;0.50;99.90
25280;DHT22;13225;47.804;12.116;2023-01-16T03:39:28;0.50;99.90
25280;DHT22;13225;47.804;12.116;2023-01-16T03:42:00;0.60;99.90
25280;DHT22;13225;47.804;12.116;2023-01-16T03:44:37;0.80;99.90
25280;DHT22;13225;47.804;12.116;2023-01-16T03:47:06;0.80;99.90
25280;DHT22;13225;47.804;12.116;2023-01-16T03:49:39;0.90;99.90
25280;DHT22;13225;47.804;12.116;2023-01-16T03:52:10;0.90;99.90
25280;DHT22;13225;47.804;12.116;2023-01-16T03:57:13;0.80;99.90
25280;DHT22;13225;47.804;12.116;2023-01-16T03:59:41;0.70;99.90
25280;DHT22;13225;47.804;12.116;2023-01-16T04:02:12;0.70;99.90
25280;DHT22;13225;47.804;12.116;2023-01-16T04:08:16;0.70;99.90
25280;DHT22;13225;47.804;12.116;2023-01-16T04:10:25;0.70;99.90
25280;DHT22;13225;47.804;12.116;2023-01-16T04:13:03;0.60;99.90
25280;DHT22;13225;47.804;12.116;2023-01-16T04:15:31;0.60;99.90
25280;DHT22;13225;47.804;12.116;2023-01-16T04:17:57;0.50;99.90
25280;DHT22;13225;47.804;12.116;2023-01-16T04:20:23;0.50;99.90
25280;DHT22;13225;47.804;12.116;2023-01-16T04:22:50;0.60;99.90
25280;DHT22;13225;47.804;12.116;2023-01-16T04:25:17;0.70;99.90
25280;DHT22;13225;47.804;12.116;2023-01-16T04:27:43;0.70;99.90
25280;DHT22;13225;47.804;12.116;2023-01-16T04:30:09;0.90;99.90
25280;DHT22;13225;47.804;12.116;2023-01-16T04:32:35;0.90;99.90
25280;DHT22;13225;47.804;12.116;2023-01-16T04:35:02;0.90;99.90
25280;DHT22;13225;47.804;12.116;2023-01-16T04:37:27;0.90;99.90
25280;DHT22;13225;47.804;12.116;2023-01-16T04:39:53;0.90;99.90
25280;DHT22;13225;47.804;12.116;2023-01-16T04:42:19;0.90;99.90
25280;DHT22;13225;47.804;12.116;2023-01-16T04:44:44;1.00;99.90
25280;DHT22;13225;47.804;12.116;2023-01-16T04:47:10;0.90;99.90
25280;DHT22;13225;47.804;12.116;2023-01-16T04:49:36;1.10;99.90
25280;DHT22;13225;47.804;12.116;2023-01-16T04:52:02;1.00;99.90
25280;DHT22;13225;47.804;12.116;2023-01-16T04:54:27;1.00;99.90
25280;DHT22;13225;47.804;12.116;2023-01-16T04:56:53;1.10;99.90
25280;DHT22;13225;47.804;12.116;2023-01-16T04:59:18;1.10;99.90
25280;DHT22;13225;47.804;12.116;2023-01-16T05:01:44;1.20;99.90
25280;DHT22;13225;47.804;12.116;2023-01-16T05:04:12;1.20;99.90
25280;DHT22;13225;47.804;12.116;2023-01-16T05:06:38;1.20;99.90
25280;DHT22;13225;47.804;12.116;2023-01-16T05:09:05;1.20;99.90
25280;DHT22;13225;47.804;12.116;2023-01-16T05:11:31;1.20;99.90
25280;DHT22;13225;47.804;12.116;2023-01-16T05:13:57;1.10;99.90
25280;DHT22;13225;47.804;12.116;2023-01-16T05:16:22;1.00;99.90
25280;DHT22;13225;47.804;12.116;2023-01-16T05:18:48;0.90;99.90
25280;DHT22;13225;47.804;12.116;2023-01-16T05:21:14;0.90;99.90
25280;DHT22;13225;47.804;12.116;2023-01-16T05:23:39;0.80;99.90
25280;DHT22;13225;47.804;12.116;2023-01-16T05:26:05;0.80;99.90
25280;DHT22;13225;47.804;12.116;2023-01-16T05:28:32;0.80;99.90
25280;DHT22;13225;47.804;12.116;2023-01-16T05:30:57;0.80;99.90
25280;DHT22;13225;47.804;12.116;2023-01-16T05:33:23;0.80;99.90
25280;DHT22;13225;47.804;12.116;2023-01-16T05:35:49;0.80;99.90
25280;DHT22;13225;47.804;12.116;2023-01-16T05:38:16;0.90;99.90
25280;DHT22;13225;47.804;12.116;2023-01-16T05:40:46;0.80;99.90
25280;DHT22;13225;47.804;12.116;2023-01-16T05:43:11;0.80;99.90
25280;DHT22;13225;47.804;12.116;2023-01-16T05:45:37;0.80;99.90
25280;DHT22;13225;47.804;12.116;2023-01-16T05:48:03;0.70;99.90
25280;DHT22;13225;47.804;12.116;2023-01-16T05:50:30;0.80;99.90
25280;DHT22;13225;47.804;12.116;2023-01-16T05:52:56;0.80;99.90
25280;DHT22;13225;47.804;12.116;2023-01-16T05:55:22;0.80;99.90
25280;DHT22;13225;47.804;12.116;2023-01-16T05:57:47;0.80;99.90
25280;DHT22;13225;47.804;12.116;2023-01-16T06:00:14;0.70;99.90
25280;DHT22;13225;47.804;12.116;2023-01-16T06:02:40;0.70;99.90
25280;DHT22;13225;47.804;12.116;2023-01-16T06:05:06;0.80;99.90
25280;DHT22;13225;47.804;12.116;2023-01-16T06:07:32;0.80;99.90
25280;DHT22;13225;47.804;12.116;2023-01-16T06:09:58;0.80;99.90
25280;DHT22;13225;47.804;12.116;2023-01-16T06:12:23;0.80;99.90
25280;DHT22;13225;47.804;12.116;2023-01-16T06:14:50;0.90;99.90
25280;DHT22;13225;47.804;12.116;2023-01-16T06:17:16;1.00;99.90
25280;DHT22;13225;47.804;12.116;2023-01-16T06:19:45;1.00;99.90
25280;DHT22;13225;47.804;12.116;2023-01-16T06:22:12;1.00;99.90
25280;DHT22;13225;47.804;12.116;2023-01-16T06:24:38;1.00;99.90
25280;DHT22;13225;47.804;12.116;2023-01-16T06:27:04;1.10;99.90
25280;DHT22;13225;47.804;12.116;2023-01-16T06:29:29;1.00;99.90
25280;DHT22;13225;47.804;12.116;2023-01-16T06:31:55;1.10;99.90
25280;DHT22;13225;47.804;12.116;2023-01-16T06:34:20;1.10;99.90
25280;DHT22;13225;47.804;12.116;2023-01-16T06:36:46;1.10;99.90
25280;DHT22;13225;47.804;12.116;2023-01-16T06:39:14;1.20;99.90
25280;DHT22;13225;47.804;12.116;2023-01-16T06:41:40;1.20;99.90
25280;DHT22;13225;47.804;12.116;2023-01-16T06:44:06;1.20;99.90
25280;DHT22;13225;47.804;12.116;2023-01-16T06:46:31;1.30;99.90
25280;DHT22;13225;47.804;12.116;2023-01-16T06:48:57;1.30;99.90
25280;DHT22;13225;47.804;12.116;2023-01-16T06:51:22;1.30;99.90
25280;DHT22;13225;47.804;12.116;2023-01-16T06:53:48;1.30;99.90
25280;DHT22;13225;47.804;12.116;2023-01-16T06:56:14;1.30;99.90
25280;DHT22;13225;47.804;12.116;2023-01-16T06:58:39;1.30;99.90
25280;DHT22;13225;47.804;12.116;2023-01-16T07:01:05;1.40;99.90
25280;DHT22;13225;47.804;12.116;2023-01-16T07:03:32;1.30;99.90
25280;DHT22;13225;47.804;12.116;2023-01-16T07:05:57;1.30;99.90
25280;DHT22;13225;47.804;12.116;2023-01-16T07:08:23;1.30;99.90
25280;DHT22;13225;47.804;12.116;2023-01-16T07:10:49;1.30;99.90
25280;DHT22;13225;47.804;12.116;2023-01-16T07:13:14;1.30;99.90
25280;DHT22;13225;47.804;12.116;2023-01-16T07:15:44;1.30;99.90
25280;DHT22;13225;47.804;12.116;2023-01-16T07:18:30;1.30;99.90
25280;DHT22;13225;47.804;12.116;2023-01-16T07:21:14;1.40;99.90
25280;DHT22;13225;47.804;12.116;2023-01-16T07:24:04;1.40;99.90
25280;DHT22;13225;47.804;12.116;2023-01-16T07:26:31;1.40;99.90
25280;DHT22;13225;47.804;12.116;2023-01-16T07:28:58;1.40;99.90
25280;DHT22;13225;47.804;12.116;2023-01-16T07:31:25;1.40;99.90
25280;DHT22;13225;47.804;12.116;2023-01-16T07:33:51;1.40;99.90
25280;DHT22;13225;47.804;12.116;2023-01-16T07:36:17;1.40;99.90
25280;DHT22;13225;47.804;12.116;2023-01-16T07:38:42;1.40;99.90
25280;DHT22;13225;47.804;12.116;2023-01-16T07:41:08;1.40;99.90
25280;DHT22;13225;47.804;12.116;2023-01-16T07:43:34;1.40;99.90
25280;DHT22;13225;47.804;12.116;2023-01-16T07:45:59;1.40;99.90
25280;DHT22;13225;47.804;12.116;2023-01-16T07:48:25;1.40;99.90
25280;DHT22;13225;47.804;12.116;2023-01-16T07:50:52;1.40;99.90
25280;DHT22;13225;47.804;12.116;2023-01-16T07:53:18;1.40;99.90
25280;DHT22;13225;47.804;12.116;2023-01-16T07:55:47;1.50;99.90
25280;DHT22;13225;47.804;12.116;2023-01-16T07:58:14;1.50;99.90
25280;DHT22;13225;47.804;12.116;2023-01-16T08:00:39;1.40;99.90
25280;DHT22;13225;47.804;12.116;2023-01-16T08:03:06;1.30;99.90
25280;DHT22;13225;47.804;12.116;2023-01-16T08:05:31;1.30;99.90
25280;DHT22;13225;47.804;12.116;2023-01-16T08:07:57;1.30;99.90
25280;DHT22;13225;47.804;12.116;2023-01-16T08:10:23;1.30;99.90
25280;DHT22;13225;47.804;12.116;2023-01-16T08:12:48;1.30;99.90
25280;DHT22;13225;47.804;12.116;2023-01-16T08:15:14;1.50;99.90
25280;DHT22;13225;47.804;12.116;2023-01-16T08:17:39;1.40;99.90
25280;DHT22;13225;47.804;12.116;2023-01-16T08:20:06;1.30;99.90
25280;DHT22;13225;47.804;12.116;2023-01-16T08:22:32;1.60;99.90
25280;DHT22;13225;47.804;12.116;2023-01-16T08:25:00;2.00;99.90
25280;DHT22;13225;47.804;12.116;2023-01-16T08:27:25;2.30;99.90
25280;DHT22;13225;47.804;12.116;2023-01-16T08:29:51;2.40;99.90
25280;DHT22;13225;47.804;12.116;2023-01-16T08:32:17;2.60;99.90
25280;DHT22;13225;47.804;12.116;2023-01-16T08:34:42;2.70;99.90
25280;DHT22;13225;47.804;12.116;2023-01-16T08:37:08;2.80;99.90
25280;DHT22;13225;47.804;12.116;2023-01-16T08:39:36;2.80;99.90
25280;DHT22;13225;47.804;12.116;2023-01-16T08:42:02;2.90;99.90
25280;DHT22;13225;47.804;12.116;2023-01-16T08:44:46;3.00;99.90
25280;DHT22;13225;47.804;12.116;2023-01-16T08:47:31;3.00;99.90
25280;DHT22;13225;47.804;12.116;2023-01-16T08:50:17;3.10;99.90
25280;DHT22;13225;47.804;12.116;2023-01-16T08:53:02;3.10;99.90
25280;DHT22;13225;47.804;12.116;2023-01-16T08:55:27;3.20;99.90
25280;DHT22;13225;47.804;12.116;2023-01-16T08:57:53;3.30;99.90
25280;DHT22;13225;47.804;12.116;2023-01-16T09:00:19;3.30;99.90
25280;DHT22;13225;47.804;12.116;2023-01-16T09:02:45;3.30;99.90
25280;DHT22;13225;47.804;12.116;2023-01-16T09:05:12;3.40;99.90
25280;DHT22;13225;47.804;12.116;2023-01-16T09:07:39;3.40;99.90
25280;DHT22;13225;47.804;12.116;2023-01-16T09:10:05;3.40;99.90
25280;DHT22;13225;47.804;12.116;2023-01-16T09:12:30;3.50;99.90
25280;DHT22;13225;47.804;12.116;2023-01-16T09:15:15;3.50;99.90
25280;DHT22;13225;47.804;12.116;2023-01-16T09:17:40;3.50;99.90
25280;DHT22;13225;47.804;12.116;2023-01-16T09:20:06;3.50;99.90
25280;DHT22;13225;47.804;12.116;2023-01-16T09:22:32;3.40;99.90
25280;DHT22;13225;47.804;12.116;2023-01-16T09:24:58;3.30;99.90
25280;DHT22;13225;47.804;12.116;2023-01-16T09:27:24;3.30;99.90
25280;DHT22;13225;47.804;12.116;2023-01-16T09:29:50;3.40;99.90
25280;DHT22;13225;47.804;12.116;2023-01-16T09:32:16;3.40;99.90
25280;DHT22;13225;47.804;12.116;2023-01-16T09:34:43;3.40;99.90
25280;DHT22;13225;47.804;12.116;2023-01-16T09:37:09;3.40;99.90
25280;DHT22;13225;47.804;12.116;2023-01-16T09:39:35;3.40;99.90
25280;DHT22;13225;47.804;12.116;2023-01-16T09:44:54;3.50;99.90
25280;DHT22;13225;47.804;12.116;2023-01-16T09:47:23;3.70;99.90
25280;DHT22;13225;47.804;12.116;2023-01-16T09:49:59;3.70;99.90
25280;DHT22;13225;47.804;12.116;2023-01-16T09:52:31;3.80;99.90
25280;DHT22;13225;47.804;12.116;2023-01-16T09:55:26;3.80;99.90
25280;DHT22;13225;47.804;12.116;2023-01-16T09:58:18;3.90;99.90
25280;DHT22;13225;47.804;12.116;2023-01-16T10:03:28;3.90;99.90
25280;DHT22;13225;47.804;12.116;2023-01-16T10:06:29;4.00;99.90
25280;DHT22;13225;47.804;12.116;2023-01-16T10:11:45;4.40;99.90
25280;DHT22;13225;47.804;12.116;2023-01-16T10:25:58;5.00;99.90
25280;DHT22;13225;47.804;12.116;2023-01-16T10:31:18;5.20;99.90
25280;DHT22;13225;47.804;12.116;2023-01-16T10:33:54;5.40;99.90
25280;DHT22;13225;47.804;12.116;2023-01-16T10:36:24;5.50;99.90
25280;DHT22;13225;47.804;12.116;2023-01-16T10:38:54;5.60;99.90
25280;DHT22;13225;47.804;12.116;2023-01-16T10:44:31;5.70;99.90
25280;DHT22;13225;47.804;12.116;2023-01-16T10:47:19;5.80;99.90
25280;DHT22;13225;47.804;12.116;2023-01-16T10:50:05;6.00;99.90
25280;DHT22;13225;47.804;12.116;2023-01-16T10:52:32;6.20;99.90
25280;DHT22;13225;47.804;12.116;2023-01-16T10:54:58;6.30;99.90
25280;DHT22;13225;47.804;12.116;2023-01-16T10:57:25;6.40;99.90
25280;DHT22;13225;47.804;12.116;2023-01-16T10:59:54;6.50;99.90
25280;DHT22;13225;47.804;12.116;2023-01-16T11:02:32;6.60;99.90
25280;DHT22;13225;47.804;12.116;2023-01-16T11:04:58;6.50;99.90
25280;DHT22;13225;47.804;12.116;2023-01-16T11:07:27;6.50;99.90
25280;DHT22;13225;47.804;12.116;2023-01-16T11:09:53;6.60;99.90
25280;DHT22;13225;47.804;12.116;2023-01-16T11:12:24;6.70;99.90
25280;DHT22;13225;47.804;12.116;2023-01-16T11:15:21;6.80;99.90
25280;DHT22;13225;47.804;12.116;2023-01-16T11:18:29;6.80;99.90
25280;DHT22;13225;47.804;12.116;2023-01-16T11:21:01;7.00;99.90
25280;DHT22;13225;47.804;12.116;2023-01-16T11:23:37;7.00;99.90
25280;DHT22;13225;47.804;12.116;2023-01-16T11:26:04;7.10;99.90
25280;DHT22;13225;47.804;12.116;2023-01-16T11:28:32;7.10;99.90
25280;DHT22;13225;47.804;12.116;2023-01-16T11:31:01;7.20;99.90
25280;DHT22;13225;47.804;12.116;2023-01-16T11:33:37;7.30;99.90
25280;DHT22;13225;47.804;12.116;2023-01-16T11:36:05;7.30;99.90
25280;DHT22;13225;47.804;12.116;2023-01-16T11:38:35;7.40;99.90
25280;DHT22;13225;47.804;12.116;2023-01-16T11:41:04;7.50;99.90
25280;DHT22;13225;47.804;12.116;2023-01-16T11:43:31;7.60;99.90
25280;DHT22;13225;47.804;12.116;2023-01-16T11:48:58;7.70;99.90
25280;DHT22;13225;47.804;12.116;2023-01-16T11:51:28;7.70;99.90
25280;DHT22;13225;47.804;12.116;2023-01-16T11:53:55;8.00;99.90
25280;DHT22;13225;47.804;12.116;2023-01-16T11:57:21;8.10;99.90
25280;DHT22;13225;47.804;12.116;2023-01-16T12:14:54;8.30;99.90
25280;DHT22;13225;47.804;12.116;2023-01-16T12:17:30;8.50;99.90
25280;DHT22;13225;47.804;12.116;2023-01-16T12:36:51;8.60;99.90
25280;DHT22;13225;47.804;12.116;2023-01-16T12:42:53;9.20;99.90
25280;DHT22;13225;47.804;12.116;2023-01-16T12:46:13;9.30;99.90
25280;DHT22;13225;47.804;12.116;2023-01-16T12:59:12;7.90;99.90
25280;DHT22;13225;47.804;12.116;2023-01-16T13:01:41;7.90;99.90
25280;DHT22;13225;47.804;12.116;2023-01-16T13:04:13;7.90;99.90
25280;DHT22;13225;47.804;12.116;2023-01-16T13:09:39;7.40;99.90
25280;DHT22;13225;47.804;12.116;2023-01-16T13:12:23;7.30;99.90
25280;DHT22;13225;47.804;12.116;2023-01-16T13:15:21;7.20;99.90
25280;DHT22;13225;47.804;12.116;2023-01-16T13:17:50;7.10;99.90
25280;DHT22;13225;47.804;12.116;2023-01-16T13:20:19;7.10;99.90
25280;DHT22;13225;47.804;12.116;2023-01-16T13:23:06;7.00;99.90
25280;DHT22;13225;47.804;12.116;2023-01-16T13:25:42;6.90;99.90
25280;DHT22;13225;47.804;12.116;2023-01-16T13:30:55;6.70;99.90
25280;DHT22;13225;47.804;12.116;2023-01-16T13:33:27;6.70;99.90
25280;DHT22;13225;47.804;12.116;2023-01-16T13:41:35;6.60;99.90
25280;DHT22;13225;47.804;12.116;2023-01-16T13:44:21;6.60;99.90
25280;DHT22;13225;47.804;12.116;2023-01-16T13:47:20;6.50;99.90
25280;DHT22;13225;47.804;12.116;2023-01-16T13:49:55;6.50;99.90
25280;DHT22;13225;47.804;12.116;2023-01-16T13:52:26;6.50;99.90
25280;DHT22;13225;47.804;12.116;2023-01-16T13:54:56;6.50;99.90
25280;DHT22;13225;47.804;12.116;2023-01-16T13:57:23;6.50;99.90
25280;DHT22;13225;47.804;12.116;2023-01-16T13:59:59;6.40;99.90
25280;DHT22;13225;47.804;12.116;2023-01-16T14:02:41;6.40;99.90
25280;DHT22;13225;47.804;12.116;2023-01-16T14:05:14;6.30;99.90
25280;DHT22;13225;47.804;12.116;2023-01-16T14:07:51;6.30;99.90
25280;DHT22;13225;47.804;12.116;2023-01-16T14:10:43;6.20;99.90
25280;DHT22;13225;47.804;12.116;2023-01-16T14:15:57;6.20;99.90
25280;DHT22;13225;47.804;12.116;2023-01-16T14:21:28;6.10;99.90
25280;DHT22;13225;47.804;12.116;2023-01-16T14:23:57;6.10;99.90
25280;DHT22;13225;47.804;12.116;2023-01-16T14:29:21;6.00;99.90
25280;DHT22;13225;47.804;12.116;2023-01-16T14:31:52;5.90;99.90
25280;DHT22;13225;47.804;12.116;2023-01-16T14:34:26;5.90;99.90
25280;DHT22;13225;47.804;12.116;2023-01-16T14:36:55;5.80;99.90
25280;DHT22;13225;47.804;12.116;2023-01-16T14:39:40;5.80;99.90
25280;DHT22;13225;47.804;12.116;2023-01-16T14:42:31;5.80;99.90
25280;DHT22;13225;47.804;12.116;2023-01-16T14:48:14;5.80;99.90
25280;DHT22;13225;47.804;12.116;2023-01-16T14:56:42;5.70;99.90
25280;DHT22;13225;47.804;12.116;2023-01-16T14:59:13;5.70;99.90
25280;DHT22;13225;47.804;12.116;2023-01-16T15:01:53;5.60;99.90
25280;DHT22;13225;47.804;12.116;2023-01-16T15:07:43;5.40;99.90
25280;DHT22;13225;47.804;12.116;2023-01-16T15:12:45;5.30;99.90
25280;DHT22;13225;47.804;12.116;2023-01-16T15:15:30;5.30;99.90
25280;DHT22;13225;47.804;12.116;2023-01-16T15:17:58;5.30;99.90
25280;DHT22;13225;47.804;12.116;2023-01-16T15:20:44;5.20;99.90
25280;DHT22;13225;47.804;12.116;2023-01-16T15:23:36;5.20;99.90
25280;DHT22;13225;47.804;12.116;2023-01-16T15:31:46;5.20;99.90
25280;DHT22;13225;47.804;12.116;2023-01-16T15:34:27;5.30;99.90
25280;DHT22;13225;47.804;12.116;2023-01-16T15:36:54;5.20;99.90
25280;DHT22;13225;47.804;12.116;2023-01-16T15:42:02;5.30;99.90
25280;DHT22;13225;47.804;12.116;2023-01-16T15:44:48;5.30;99.90
25280;DHT22;13225;47.804;12.116;2023-01-16T15:47:45;5.20;99.90
25280;DHT22;13225;47.804;12.116;2023-01-16T15:50:27;5.20;99.90
25280;DHT22;13225;47.804;12.116;2023-01-16T15:52:55;5.20;99.90
25280;DHT22;13225;47.804;12.116;2023-01-16T15:55:29;5.20;99.90
25280;DHT22;13225;47.804;12.116;2023-01-16T15:58:01;5.20;99.90
25280;DHT22;13225;47.804;12.116;2023-01-16T16:00:35;5.30;99.90
25280;DHT22;13225;47.804;12.116;2023-01-16T16:03:16;5.20;99.90
25280;DHT22;13225;47.804;12.116;2023-01-16T16:05:59;5.20;99.90
25280;DHT22;13225;47.804;12.116;2023-01-16T16:08:29;5.10;99.90
25280;DHT22;13225;47.804;12.116;2023-01-16T16:10:58;5.10;99.90
25280;DHT22;13225;47.804;12.116;2023-01-16T16:13:43;5.00;99.90
25280;DHT22;13225;47.804;12.116;2023-01-16T16:16:19;4.90;99.90
25280;DHT22;13225;47.804;12.116;2023-01-16T16:19:05;4.90;99.90
25280;DHT22;13225;47.804;12.116;2023-01-16T16:21:36;4.90;99.90
25280;DHT22;13225;47.804;12.116;2023-01-16T16:24:10;4.80;99.90
25280;DHT22;13225;47.804;12.116;2023-01-16T16:26:42;4.80;99.90
25280;DHT22;13225;47.804;12.116;2023-01-16T16:29:21;4.70;99.90
25280;DHT22;13225;47.804;12.116;2023-01-16T16:31:47;4.80;99.90
25280;DHT22;13225;47.804;12.116;2023-01-16T16:34:23;4.70;99.90
25280;DHT22;13225;47.804;12.116;2023-01-16T16:36:53;4.70;99.90
25280;DHT22;13225;47.804;12.116;2023-01-16T16:47:35;4.80;99.90
25280;DHT22;13225;47.804;12.116;2023-01-16T16:53:16;4.80;99.90
25280;DHT22;13225;47.804;12.116;2023-01-16T16:55:48;4.70;99.90
25280;DHT22;13225;47.804;12.116;2023-01-16T16:58:23;4.60;99.90
25280;DHT22;13225;47.804;12.116;2023-01-16T17:00:50;4.60;99.90
25280;DHT22;13225;47.804;12.116;2023-01-16T17:03:22;4.60;99.90
25280;DHT22;13225;47.804;12.116;2023-01-16T17:05:49;4.70;99.90
25280;DHT22;13225;47.804;12.116;2023-01-16T17:08:23;4.60;99.90
25280;DHT22;13225;47.804;12.116;2023-01-16T17:10:49;4.60;99.90
25280;DHT22;13225;47.804;12.116;2023-01-16T17:13:18;4.60;99.90
25280;DHT22;13225;47.804;12.116;2023-01-16T17:15:45;4.50;99.90
25280;DHT22;13225;47.804;12.116;2023-01-16T17:18:12;4.40;99.90
25280;DHT22;13225;47.804;12.116;2023-01-16T17:20:38;4.30;99.90
25280;DHT22;13225;47.804;12.116;2023-01-16T17:23:13;4.20;99.90
25280;DHT22;13225;47.804;12.116;2023-01-16T17:25:40;4.10;99.90
25280;DHT22;13225;47.804;12.116;2023-01-16T17:28:07;4.10;99.90
25280;DHT22;13225;47.804;12.116;2023-01-16T17:30:33;4.10;99.90
25280;DHT22;13225;47.804;12.116;2023-01-16T17:33:04;4.30;99.90
25280;DHT22;13225;47.804;12.116;2023-01-16T17:35:36;4.20;99.90
25280;DHT22;13225;47.804;12.116;2023-01-16T17:38:15;4.10;99.90
25280;DHT22;13225;47.804;12.116;2023-01-16T17:40:41;4.10;99.90
25280;DHT22;13225;47.804;12.116;2023-01-16T17:43:19;4.00;99.90
25280;DHT22;13225;47.804;12.116;2023-01-16T17:46:11;4.00;99.90
25280;DHT22;13225;47.804;12.116;2023-01-16T17:48:37;4.00;99.90
25280;DHT22;13225;47.804;12.116;2023-01-16T17:51:03;3.90;99.90
25280;DHT22;13225;47.804;12.116;2023-01-16T17:53:30;3.90;99.90
25280;DHT22;13225;47.804;12.116;2023-01-16T17:55:57;3.80;99.90
25280;DHT22;13225;47.804;12.116;2023-01-16T17:58:29;3.80;99.90
25280;DHT22;13225;47.804;12.116;2023-01-16T18:01:03;3.60;99.90
25280;DHT22;13225;47.804;12.116;2023-01-16T18:03:30;3.40;99.90
25280;DHT22;13225;47.804;12.116;2023-01-16T18:06:08;3.40;99.90
25280;DHT22;13225;47.804;12.116;2023-01-16T18:08:35;3.30;99.90
25280;DHT22;13225;47.804;12.116;2023-01-16T18:11:02;3.20;99.90
25280;DHT22;13225;47.804;12.116;2023-01-16T18:13:47;3.10;99.90
25280;DHT22;13225;47.804;12.116;2023-01-16T18:16:31;3.00;99.90
25280;DHT22;13225;47.804;12.116;2023-01-16T18:19:15;2.90;99.90
25280;DHT22;13225;47.804;12.116;2023-01-16T18:21:40;2.80;99.90
25280;DHT22;13225;47.804;12.116;2023-01-16T18:24:25;2.70;99.90
25280;DHT22;13225;47.804;12.116;2023-01-16T18:26:50;2.70;99.90
25280;DHT22;13225;47.804;12.116;2023-01-16T18:29:16;2.70;99.90
25280;DHT22;13225;47.804;12.116;2023-01-16T18:31:41;2.80;99.90
25280;DHT22;13225;47.804;12.116;2023-01-16T18:34:27;2.40;99.90
25280;DHT22;13225;47.804;12.116;2023-01-16T18:36:52;2.20;99.90
25280;DHT22;13225;47.804;12.116;2023-01-16T18:39:18;2.20;99.90
25280;DHT22;13225;47.804;12.116;2023-01-16T18:42:02;2.10;99.90
25280;DHT22;13225;47.804;12.116;2023-01-16T18:44:46;2.20;99.90
25280;DHT22;13225;47.804;12.116;2023-01-16T18:47:30;2.00;99.90
25280;DHT22;13225;47.804;12.116;2023-01-16T18:50:14;1.80;99.90
25280;DHT22;13225;47.804;12.116;2023-01-16T18:52:59;1.60;99.90
25280;DHT22;13225;47.804;12.116;2023-01-16T18:55:43;1.40;99.90
25280;DHT22;13225;47.804;12.116;2023-01-16T18:58:27;1.30;99.90